Time;durP1;ratioP1;P1;durP2;ratioP2;P2;SDS_P1;SDS_P2;PMS_P1;PMS_P2;Temp;Humidity;BMP_temperature;BMP_pressure;BME280_temperature;BME280_humidity;BME280_pressure;Samples;Min_cycle;Max_cycle;Signal;HPM_P1;HPM_P2
2023/08/25 00:00:31;;;;;;;2.08;0.98;;;25.50;65.30;;;;;;2250684;56;20987;-68
2023/08/25 00:02:59;;;;;;;2.50;1.00;;;25.50;65.20;;;;;;2256938;56;21592;-68
2023/08/25 00:05:25;;;;;;;4.15;1.40;;;25.50;65.10;;;;;;2257019;56;21405;-68
2023/08/25 00:07:51;;;;;;;3.67;1.37;;;25.50;65.10;;;;;;2498120;55;20964;-69
2023/08/25 00:10:18;;;;;;;2.30;1.10;;;25.40;65.10;;;;;;2510950;55;20979;-69
2023/08/25 00:12:46;;;;;;;2.25;1.10;;;25.50;65.20;;;;;;2509716;55;21003;-69
2023/08/25 00:15:12;;;;;;;2.37;1.17;;;25.40;65.10;;;;;;2511050;55;21015;-68
2023/08/25 00:17:39;;;;;;;3.78;1.58;;;25.40;65.00;;;;;;2509721;55;20960;-68
2023/08/25 00:20:09;;;;;;;2.60;1.30;;;25.40;65.10;;;;;;2278791;56;21244;-69
2023/08/25 00:22:35;;;;;;;3.03;1.52;;;25.40;65.20;;;;;;2278289;56;21018;-68
2023/08/25 00:25:05;;;;;;;3.28;1.20;;;25.40;65.20;;;;;;2278983;56;20952;-67
2023/08/25 00:27:32;;;;;;;2.28;0.95;;;25.40;65.30;;;;;;2484351;55;20981;-69
2023/08/25 00:29:59;;;;;;;2.75;1.10;;;25.40;65.30;;;;;;2483975;55;21005;-68
2023/08/25 00:32:26;;;;;;;4.65;1.35;;;25.40;65.30;;;;;;2256222;56;21006;-69
2023/08/25 00:34:54;;;;;;;1.55;0.82;;;25.40;65.30;;;;;;2258185;56;21069;-69
2023/08/25 00:37:24;;;;;;;3.25;0.98;;;25.30;65.20;;;;;;2496396;55;20990;-69
2023/08/25 00:39:51;;;;;;;3.03;0.90;;;25.30;65.10;;;;;;2482003;55;20966;-69
2023/08/25 00:42:18;;;;;;;2.50;1.15;;;25.30;65.10;;;;;;2475783;55;21574;-68
2023/08/25 00:44:45;;;;;;;2.15;0.90;;;25.30;65.00;;;;;;2474106;55;21081;-69
2023/08/25 00:47:12;;;;;;;5.57;1.27;;;25.20;64.90;;;;;;2256246;55;21100;-68
2023/08/25 00:49:39;;;;;;;4.20;1.00;;;25.20;64.90;;;;;;2255594;55;21106;-67
2023/08/25 00:52:07;;;;;;;2.25;0.90;;;25.20;64.90;;;;;;2483831;55;20982;-70
2023/08/25 00:54:35;;;;;;;2.00;1.02;;;25.20;65.00;;;;;;2479437;55;21008;-70
2023/08/25 00:57:08;;;;;;;2.58;1.20;;;25.20;65.00;;;;;;2479086;55;21002;-69
2023/08/25 00:59:35;;;;;;;1.85;0.90;;;25.20;65.00;;;;;;2264289;56;21062;-70
2023/08/25 01:02:07;;;;;;;2.75;1.17;;;25.10;65.00;;;;;;2477262;55;20955;-69
2023/08/25 01:04:34;;;;;;;2.42;0.95;;;25.10;64.90;;;;;;2255982;55;20994;-67
2023/08/25 01:07:01;;;;;;;2.10;1.00;;;25.10;65.00;;;;;;2254186;56;20952;-68
2023/08/25 01:09:27;;;;;;;2.20;0.98;;;25.00;65.10;;;;;;2455933;55;20946;-68
2023/08/25 01:12:09;;;;;;;1.90;0.90;;;25.00;65.10;;;;;;2490228;55;21882;-68
2023/08/25 01:18:12;;;;;;;3.62;1.00;;;25.00;65.20;;;;;;2231809;56;20986;-69
2023/08/25 01:20:39;;;;;;;2.70;0.80;;;25.00;64.90;;;;;;2456473;55;21037;-67
2023/08/25 01:24:36;;;;;;;2.05;0.98;;;24.90;65.00;;;;;;2262336;56;21015;-69
2023/08/25 01:27:05;;;;;;;2.10;0.90;;;24.90;64.80;;;;;;2257003;56;21013;-68
2023/08/25 01:29:33;;;;;;;2.12;1.00;;;24.90;65.00;;;;;;2260982;56;20937;-69
2023/08/25 01:32:00;;;;;;;2.70;0.90;;;24.90;65.00;;;;;;2483476;55;20971;-68
2023/08/25 01:34:26;;;;;;;1.98;0.98;;;24.80;65.00;;;;;;2483930;55;21541;-68
2023/08/25 01:37:17;;;;;;;2.12;0.90;;;24.80;65.10;;;;;;2255548;56;20954;-68
2023/08/25 01:39:45;;;;;;;3.15;1.25;;;24.80;64.90;;;;;;2255449;56;21713;-69
2023/08/25 01:42:11;;;;;;;2.85;1.23;;;24.70;64.90;;;;;;2253993;56;20957;-67
2023/08/25 01:44:39;;;;;;;2.12;1.25;;;24.70;64.90;;;;;;2481771;55;21850;-66
2023/08/25 01:47:06;;;;;;;2.45;1.12;;;24.70;65.00;;;;;;2256704;56;20930;-69
2023/08/25 01:49:32;;;;;;;2.40;1.10;;;24.60;64.90;;;;;;2483814;55;21054;-68
2023/08/25 01:51:59;;;;;;;2.37;1.00;;;24.60;64.90;;;;;;2255489;56;20949;-68
2023/08/25 01:54:25;;;;;;;2.45;1.25;;;24.60;65.00;;;;;;2483455;55;21054;-69
2023/08/25 01:56:52;;;;;;;2.10;1.10;;;24.60;65.10;;;;;;2483150;55;21014;-68
2023/08/25 01:59:18;;;;;;;3.47;1.37;;;24.60;65.20;;;;;;2270973;56;20928;-68
2023/08/25 02:01:44;;;;;;;2.80;1.27;;;24.60;65.30;;;;;;2277922;56;20947;-69
2023/08/25 02:04:11;;;;;;;2.65;1.10;;;24.50;65.20;;;;;;2511008;55;20907;-68
2023/08/25 02:06:37;;;;;;;3.55;1.50;;;24.50;65.10;;;;;;2277627;56;21900;-69
2023/08/25 02:09:04;;;;;;;2.75;1.30;;;24.50;65.10;;;;;;2510301;55;22508;-70
2023/08/25 02:11:30;;;;;;;2.72;1.20;;;24.50;65.30;;;;;;2497689;54;20949;-69
2023/08/25 02:13:56;;;;;;;2.08;1.02;;;24.40;65.20;;;;;;2479715;55;21808;-69
2023/08/25 02:16:23;;;;;;;2.50;1.20;;;24.40;65.20;;;;;;2256388;56;21730;-67
2023/08/25 02:18:49;;;;;;;2.65;1.25;;;24.40;65.20;;;;;;2255596;56;21006;-69
2023/08/25 02:21:15;;;;;;;2.20;1.00;;;24.40;65.20;;;;;;2261821;55;20981;-68
2023/08/25 02:23:42;;;;;;;2.42;1.08;;;24.40;65.30;;;;;;2256315;56;21718;-68
2023/08/25 02:26:08;;;;;;;2.50;1.60;;;24.40;65.40;;;;;;2484215;55;21020;-69
2023/08/25 02:28:34;;;;;;;2.50;1.20;;;24.30;65.40;;;;;;2490673;55;21873;-69
2023/08/25 02:31:02;;;;;;;2.08;1.05;;;24.30;65.40;;;;;;2248346;56;21088;-69
2023/08/25 02:33:28;;;;;;;3.90;1.15;;;24.30;65.50;;;;;;2239209;56;21011;-68
2023/08/25 02:35:54;;;;;;;2.37;1.10;;;24.30;65.50;;;;;;2484031;55;20970;-69
2023/08/25 02:38:23;;;;;;;4.90;1.08;;;24.30;65.40;;;;;;2256447;56;21073;-69
2023/08/25 02:40:49;;;;;;;3.37;0.98;;;24.30;65.40;;;;;;2482489;55;20987;-70
2023/08/25 02:43:16;;;;;;;2.20;1.00;;;24.30;65.40;;;;;;2256729;56;20970;-68
2023/08/25 02:45:45;;;;;;;2.58;1.20;;;24.30;65.40;;;;;;2256736;56;21506;-69
2023/08/25 02:48:12;;;;;;;3.83;1.20;;;24.30;65.40;;;;;;2483510;55;21258;-68
2023/08/25 02:50:41;;;;;;;2.30;1.10;;;24.20;65.20;;;;;;2255620;56;21064;-68
2023/08/25 02:53:07;;;;;;;2.08;0.95;;;24.20;65.10;;;;;;2250703;56;21038;-67
2023/08/25 02:55:33;;;;;;;3.20;1.20;;;24.20;65.10;;;;;;2484052;55;20993;-69
2023/08/25 02:58:00;;;;;;;2.30;1.00;;;24.20;65.10;;;;;;2255755;56;20975;-68
2023/08/25 03:00:26;;;;;;;2.55;1.30;;;24.10;65.00;;;;;;2256607;56;20946;-69
2023/08/25 03:02:53;;;;;;;3.30;1.23;;;24.10;65.00;;;;;;2476446;55;21046;-68
2023/08/25 03:05:22;;;;;;;4.12;1.23;;;24.10;65.00;;;;;;2254729;56;21029;-69
2023/08/25 03:07:51;;;;;;;2.53;1.15;;;24.10;65.00;;;;;;2256952;56;21352;-69
2023/08/25 03:10:22;;;;;;;2.28;1.10;;;24.00;64.90;;;;;;2257349;56;21046;-68
2023/08/25 03:12:48;;;;;;;3.33;1.30;;;24.00;65.00;;;;;;2255830;56;21010;-68
2023/08/25 03:15:15;;;;;;;3.45;0.93;;;24.00;65.20;;;;;;2484171;55;20952;-69
2023/08/25 03:17:41;;;;;;;2.80;1.15;;;24.00;65.20;;;;;;2239788;56;20973;-68
2023/08/25 03:20:08;;;;;;;2.47;1.00;;;23.90;65.10;;;;;;2248723;56;20945;-69
2023/08/25 03:22:34;;;;;;;2.33;1.00;;;23.90;65.00;;;;;;2277477;56;20999;-69
2023/08/25 03:25:04;;;;;;;1.98;0.90;;;23.90;64.90;;;;;;2278076;56;20968;-67
2023/08/25 03:27:32;;;;;;;2.40;1.12;;;23.90;65.00;;;;;;2509771;55;20959;-69
2023/08/25 03:30:01;;;;;;;3.10;1.20;;;23.80;64.90;;;;;;2506191;55;20971;-69
2023/08/25 03:32:27;;;;;;;3.90;1.00;;;23.80;65.10;;;;;;2251016;56;21033;-69
2023/08/25 03:34:53;;;;;;;3.28;1.10;;;23.80;65.10;;;;;;2483218;55;21004;-69
2023/08/25 03:37:19;;;;;;;2.62;1.25;;;23.80;65.20;;;;;;2256036;56;20989;-69
2023/08/25 03:39:46;;;;;;;2.60;1.02;;;23.80;65.20;;;;;;2255576;56;20959;-67
2023/08/25 03:42:13;;;;;;;2.97;1.23;;;23.70;65.20;;;;;;2256217;56;21129;-69
2023/08/25 03:44:39;;;;;;;2.53;1.10;;;23.70;65.20;;;;;;2255466;56;20971;-68
2023/08/25 03:47:06;;;;;;;2.95;1.20;;;23.70;65.20;;;;;;2454273;55;21030;-68
2023/08/25 03:49:34;;;;;;;2.83;1.08;;;23.70;65.30;;;;;;2256493;56;21046;-68
2023/08/25 03:52:01;;;;;;;3.05;1.20;;;23.70;65.40;;;;;;2489046;55;20957;-69
2023/08/25 03:54:31;;;;;;;3.10;1.20;;;23.60;65.20;;;;;;2481413;55;20970;-69
2023/08/25 03:56:57;;;;;;;4.78;1.30;;;23.70;65.30;;;;;;2256311;56;20958;-68
2023/08/25 03:59:30;;;;;;;2.12;1.10;;;23.60;65.20;;;;;;2484746;55;21459;-68
2023/08/25 04:01:56;;;;;;;2.40;1.23;;;23.60;65.20;;;;;;2483344;55;21252;-68
2023/08/25 04:04:22;;;;;;;4.70;1.20;;;23.60;65.20;;;;;;2485179;55;20986;-68
2023/08/25 04:06:49;;;;;;;2.65;1.20;;;23.50;65.30;;;;;;2484599;55;21006;-68
2023/08/25 04:09:15;;;;;;;2.60;1.25;;;23.60;65.40;;;;;;2257240;56;21070;-69
2023/08/25 04:11:42;;;;;;;2.30;1.00;;;23.50;65.40;;;;;;2482769;55;21490;-69
2023/08/25 04:14:08;;;;;;;3.37;1.12;;;23.50;65.40;;;;;;2256314;56;21009;-69
2023/08/25 04:16:35;;;;;;;3.03;1.10;;;23.50;65.40;;;;;;2490198;55;21842;-68
2023/08/25 04:19:01;;;;;;;3.10;1.20;;;23.50;65.40;;;;;;2255810;56;21484;-69
2023/08/25 04:21:28;;;;;;;3.00;1.30;;;23.50;65.50;;;;;;2256946;56;20953;-67
2023/08/25 04:23:55;;;;;;;2.72;1.20;;;23.50;65.40;;;;;;2255803;56;21854;-69
2023/08/25 04:26:24;;;;;;;3.30;1.40;;;23.50;65.40;;;;;;2277557;56;21034;-67
2023/08/25 04:28:53;;;;;;;4.35;1.37;;;23.40;65.40;;;;;;2255936;56;21078;-68
2023/08/25 04:31:20;;;;;;;2.50;1.17;;;23.40;65.50;;;;;;2483173;55;20914;-68
2023/08/25 04:33:46;;;;;;;2.72;1.40;;;23.40;65.50;;;;;;2483200;55;21002;-67
2023/08/25 04:36:13;;;;;;;5.30;1.48;;;23.40;65.60;;;;;;2256106;56;20965;-69
2023/08/25 04:38:41;;;;;;;2.87;1.77;;;23.40;65.80;;;;;;2254672;56;21021;-68
2023/08/25 04:41:07;;;;;;;3.35;1.73;;;23.40;66.00;;;;;;2479345;55;21015;-68
2023/08/25 04:43:34;;;;;;;3.42;1.67;;;23.40;66.10;;;;;;2483797;55;20966;-68
2023/08/25 04:46:01;;;;;;;4.28;1.50;;;23.40;66.00;;;;;;2255289;56;20946;-70
2023/08/25 04:48:27;;;;;;;3.15;1.50;;;23.40;66.00;;;;;;2256513;56;21070;-69
2023/08/25 04:50:54;;;;;;;2.28;1.10;;;23.40;66.10;;;;;;2483824;55;21293;-71
2023/08/25 04:53:20;;;;;;;2.72;1.33;;;23.40;66.00;;;;;;2259684;56;21059;-71
2023/08/25 04:55:47;;;;;;;3.17;1.23;;;23.40;66.10;;;;;;2450228;55;21807;-70
2023/08/25 04:58:13;;;;;;;2.80;1.40;;;23.40;66.30;;;;;;2483790;55;20986;-69
2023/08/25 05:00:39;;;;;;;3.30;1.30;;;23.40;66.30;;;;;;2255853;56;21720;-71
2023/08/25 05:03:07;;;;;;;2.58;1.50;;;23.40;66.30;;;;;;2483653;55;21856;-70
2023/08/25 05:05:38;;;;;;;2.83;1.45;;;23.30;66.30;;;;;;2256285;56;21033;-70
2023/08/25 05:08:05;;;;;;;4.65;1.73;;;23.40;66.50;;;;;;2479875;55;20987;-71
2023/08/25 05:10:31;;;;;;;3.00;1.67;;;23.40;66.50;;;;;;2484043;55;20997;-71
2023/08/25 05:12:58;;;;;;;5.47;1.90;;;23.40;66.60;;;;;;2483932;55;20961;-71
2023/08/25 05:15:24;;;;;;;3.10;1.30;;;23.50;66.80;;;;;;2484345;55;20922;-70
2023/08/25 05:17:54;;;;;;;2.87;1.42;;;23.50;66.90;;;;;;2261535;55;21445;-70
2023/08/25 05:20:21;;;;;;;2.55;1.50;;;23.50;67.00;;;;;;2483712;55;20998;-70
2023/08/25 05:22:48;;;;;;;2.97;1.50;;;23.50;67.00;;;;;;2484444;55;21022;-68
2023/08/25 05:25:14;;;;;;;2.85;1.42;;;23.50;67.10;;;;;;2255906;56;21034;-67
2023/08/25 05:27:40;;;;;;;4.40;1.40;;;23.60;67.30;;;;;;2475631;55;21077;-71
2023/08/25 05:30:07;;;;;;;3.72;1.33;;;23.60;67.30;;;;;;2259885;56;21479;-71
2023/08/25 05:32:35;;;;;;;4.00;1.80;;;23.60;67.30;;;;;;2483924;55;21001;-70
2023/08/25 05:35:03;;;;;;;3.15;1.48;;;23.70;67.40;;;;;;2481634;55;20967;-70
2023/08/25 05:37:29;;;;;;;2.83;1.55;;;23.70;67.50;;;;;;2256977;56;20951;-67
2023/08/25 05:39:55;;;;;;;5.57;1.80;;;23.70;67.50;;;;;;2483037;55;21022;-67
2023/08/25 05:42:24;;;;;;;2.65;1.48;;;23.70;67.60;;;;;;2483390;55;21464;-71
2023/08/25 05:44:51;;;;;;;3.85;1.60;;;23.80;67.70;;;;;;2255709;56;21025;-70
2023/08/25 05:47:19;;;;;;;3.83;1.90;;;23.80;67.80;;;;;;2256557;56;21034;-69
2023/08/25 05:49:45;;;;;;;5.45;1.67;;;23.90;68.00;;;;;;2255692;56;21054;-68
2023/08/25 05:52:13;;;;;;;2.85;1.25;;;23.90;68.00;;;;;;2250439;56;20983;-69
2023/08/25 05:54:39;;;;;;;3.20;1.50;;;23.90;68.00;;;;;;2473004;55;21007;-71
2023/08/25 05:57:08;;;;;;;3.10;1.27;;;23.90;67.90;;;;;;2273309;56;21012;-69
2023/08/25 05:59:35;;;;;;;4.28;1.65;;;24.00;68.00;;;;;;2256182;56;20946;-69
2023/08/25 06:02:01;;;;;;;3.42;1.80;;;24.00;68.00;;;;;;2256562;56;20955;-69
2023/08/25 06:04:28;;;;;;;2.97;1.50;;;24.10;68.10;;;;;;2489658;55;20984;-69
2023/08/25 06:06:57;;;;;;;4.62;1.58;;;24.10;68.00;;;;;;2488212;55;21458;-67
2023/08/25 06:09:24;;;;;;;2.80;1.27;;;24.10;68.00;;;;;;2510520;55;20944;-69
2023/08/25 06:11:53;;;;;;;2.92;1.50;;;24.10;67.90;;;;;;2510229;55;20987;-68
2023/08/25 06:14:19;;;;;;;2.60;1.20;;;24.20;67.90;;;;;;2510209;55;21039;-69
2023/08/25 06:16:46;;;;;;;3.20;1.40;;;24.20;67.80;;;;;;2507511;55;20983;-69
2023/08/25 06:19:15;;;;;;;3.70;1.50;;;24.20;67.80;;;;;;2268139;55;20957;-69
2023/08/25 06:21:41;;;;;;;3.90;1.20;;;24.20;67.70;;;;;;2248046;55;21053;-72
2023/08/25 06:24:07;;;;;;;2.55;1.25;;;24.30;67.80;;;;;;2256591;56;21006;-70
2023/08/25 06:26:34;;;;;;;4.15;1.25;;;24.30;67.70;;;;;;2256873;56;21007;-70
2023/08/25 06:29:00;;;;;;;4.40;1.73;;;24.30;67.60;;;;;;2483888;55;21467;-69
2023/08/25 06:31:30;;;;;;;3.75;1.40;;;24.30;67.70;;;;;;2256296;56;20951;-70
2023/08/25 06:33:56;;;;;;;3.78;1.25;;;24.30;68.60;;;;;;2256094;56;21022;-69
2023/08/25 06:36:23;;;;;;;8.65;1.75;;;24.30;68.10;;;;;;2258806;56;20985;-70
2023/08/25 06:38:50;;;;;;;7.50;1.80;;;24.30;68.30;;;;;;2482848;55;20978;-70
2023/08/25 06:41:21;;;;;;;3.95;1.58;;;24.20;68.40;;;;;;2255490;56;21505;-70
2023/08/25 06:43:48;;;;;;;3.40;1.45;;;24.20;68.70;;;;;;2254813;56;21045;-68
2023/08/25 06:46:15;;;;;;;4.45;1.58;;;24.10;69.30;;;;;;2255825;56;21022;-70
2023/08/25 06:48:42;;;;;;;5.30;1.52;;;24.10;70.10;;;;;;2489036;55;21837;-69
2023/08/25 06:51:08;;;;;;;5.25;1.70;;;24.10;70.70;;;;;;2278547;56;20955;-70
2023/08/25 06:53:35;;;;;;;3.58;1.60;;;24.00;71.30;;;;;;2510299;55;21436;-72
2023/08/25 06:56:01;;;;;;;5.62;1.60;;;24.00;71.70;;;;;;2278010;56;20967;-72
2023/08/25 06:58:27;;;;;;;4.37;1.60;;;24.00;72.10;;;;;;2278415;56;20971;-69
2023/08/25 07:00:54;;;;;;;3.62;1.65;;;24.00;72.40;;;;;;2509619;55;20972;-72
2023/08/25 07:03:22;;;;;;;3.17;1.30;;;24.00;73.40;;;;;;2510779;55;21252;-69
2023/08/25 07:05:49;;;;;;;3.10;1.50;;;23.90;72.80;;;;;;2278335;56;21404;-71
2023/08/25 07:08:15;;;;;;;3.45;1.55;;;23.90;73.00;;;;;;2509363;55;20919;-69
2023/08/25 07:10:45;;;;;;;2.90;1.45;;;23.90;73.10;;;;;;2256376;56;21046;-69
2023/08/25 07:13:11;;;;;;;3.55;1.55;;;23.80;73.00;;;;;;2474792;55;20975;-71
2023/08/25 07:15:38;;;;;;;2.90;1.67;;;23.80;73.10;;;;;;2448808;55;21860;-70
2023/08/25 07:18:06;;;;;;;3.42;1.52;;;23.80;73.30;;;;;;2476691;55;20962;-73
2023/08/25 07:20:34;;;;;;;3.97;1.87;;;23.80;73.60;;;;;;2515471;54;20943;-72
2023/08/25 07:23:00;;;;;;;3.20;1.40;;;23.80;73.70;;;;;;2515529;54;21017;-73
2023/08/25 07:25:26;;;;;;;3.00;1.30;;;23.70;73.80;;;;;;2283196;56;21039;-71
2023/08/25 07:27:53;;;;;;;2.97;1.52;;;23.70;73.90;;;;;;2283223;56;20967;-74
2023/08/25 07:30:22;;;;;;;3.75;1.90;;;23.70;74.10;;;;;;2284418;55;21043;-72
2023/08/25 07:32:51;;;;;;;2.80;1.50;;;23.60;74.20;;;;;;2255601;56;21585;-71
2023/08/25 07:35:21;;;;;;;3.70;1.60;;;23.60;74.30;;;;;;2516429;55;21052;-69
2023/08/25 07:37:47;;;;;;;3.00;1.45;;;23.60;74.40;;;;;;2282864;56;21000;-67
2023/08/25 07:40:17;;;;;;;4.32;1.60;;;23.60;74.50;;;;;;2282655;55;20971;-69
2023/08/25 07:42:48;;;;;;;3.10;1.60;;;23.50;74.60;;;;;;2282329;56;21087;-70
2023/08/25 07:45:15;;;;;;;5.18;2.15;;;23.50;74.60;;;;;;2516084;55;20979;-72
2023/08/25 07:47:41;;;;;;;4.35;1.80;;;23.50;74.70;;;;;;2256985;55;21015;-73
2023/08/25 07:50:09;;;;;;;3.42;1.65;;;23.50;74.80;;;;;;2515689;54;20995;-72
2023/08/25 07:52:35;;;;;;;3.40;1.70;;;23.50;75.00;;;;;;2281855;56;20975;-71
2023/08/25 07:55:01;;;;;;;3.47;1.80;;;23.50;75.10;;;;;;2514659;55;20963;-72
2023/08/25 07:57:28;;;;;;;3.45;1.83;;;23.40;75.10;;;;;;2281394;56;20983;-70
2023/08/25 07:59:55;;;;;;;3.53;1.90;;;23.50;75.30;;;;;;2515145;54;20956;-72
2023/08/25 08:02:21;;;;;;;2.78;1.60;;;23.50;75.40;;;;;;2282361;56;20988;-70
2023/08/25 08:04:48;;;;;;;3.45;1.70;;;23.40;75.40;;;;;;2515379;54;20976;-71
2023/08/25 08:07:14;;;;;;;2.78;1.60;;;23.50;75.60;;;;;;2515651;54;20995;-73
2023/08/25 08:09:51;;;;;;;3.05;1.75;;;23.40;75.60;;;;;;2515058;55;20972;-69
2023/08/25 08:12:17;;;;;;;4.05;2.30;;;23.50;75.60;;;;;;2516326;54;20936;-72
2023/08/25 08:14:44;;;;;;;3.35;2.00;;;23.40;75.80;;;;;;2281947;56;20968;-73
2023/08/25 08:17:11;;;;;;;3.37;1.85;;;23.40;76.00;;;;;;2513458;54;21026;-73
2023/08/25 08:19:38;;;;;;;3.30;1.95;;;23.40;76.10;;;;;;2507697;54;21758;-70
2023/08/25 08:22:04;;;;;;;2.80;1.80;;;23.40;76.20;;;;;;2479599;55;21776;-69
2023/08/25 08:24:31;;;;;;;4.12;1.58;;;23.50;76.50;;;;;;2515400;55;20939;-71
2023/08/25 08:27:04;;;;;;;2.42;1.52;;;23.50;76.60;;;;;;2231583;57;21506;-71
2023/08/25 08:29:32;;;;;;;3.47;1.80;;;23.50;76.70;;;;;;2489574;55;20937;-73
2023/08/25 08:31:58;;;;;;;3.10;1.80;;;23.50;76.80;;;;;;2482740;55;21587;-71
2023/08/25 08:34:24;;;;;;;3.80;2.00;;;23.50;76.80;;;;;;2271842;56;21023;-71
2023/08/25 08:36:51;;;;;;;3.25;1.73;;;23.50;76.80;;;;;;2281099;56;21428;-73
2023/08/25 08:39:17;;;;;;;3.03;1.48;;;23.60;77.00;;;;;;2252392;56;20992;-73
2023/08/25 08:41:44;;;;;;;4.80;1.60;;;23.50;77.00;;;;;;2482755;55;20946;-73
2023/08/25 08:44:10;;;;;;;3.05;1.65;;;23.70;77.30;;;;;;2483986;55;21034;-73
2023/08/25 08:46:38;;;;;;;3.40;1.95;;;23.60;77.10;;;;;;2483984;55;21038;-70
2023/08/25 08:49:05;;;;;;;3.50;2.00;;;23.60;77.20;;;;;;2256486;56;20950;-71
2023/08/25 08:51:32;;;;;;;2.80;1.70;;;23.70;77.30;;;;;;2483359;55;21005;-73
2023/08/25 08:53:58;;;;;;;2.83;1.55;;;23.70;77.30;;;;;;2255796;56;21122;-72
2023/08/25 08:56:25;;;;;;;2.75;1.40;;;23.70;77.40;;;;;;2256068;56;21001;-72
2023/08/25 08:58:51;;;;;;;3.10;1.52;;;23.80;77.60;;;;;;2255928;56;21058;-71
2023/08/25 09:01:17;;;;;;;2.95;1.87;;;23.80;77.60;;;;;;2484273;55;21275;-71
2023/08/25 09:03:47;;;;;;;2.95;1.90;;;23.80;77.60;;;;;;2255231;56;21493;-71
2023/08/25 09:06:13;;;;;;;3.53;1.77;;;23.90;77.70;;;;;;2256031;56;20970;-70
2023/08/25 09:08:40;;;;;;;3.00;1.90;;;23.90;77.60;;;;;;2255786;56;20942;-70
2023/08/25 09:11:06;;;;;;;3.72;2.08;;;23.90;77.60;;;;;;2256293;56;20943;-70
2023/08/25 09:13:33;;;;;;;3.28;1.85;;;23.90;77.50;;;;;;2484013;55;20987;-72
2023/08/25 09:16:00;;;;;;;4.05;1.80;;;23.90;77.50;;;;;;2483369;55;20990;-72
2023/08/25 09:18:33;;;;;;;4.60;1.80;;;24.00;77.60;;;;;;2483687;55;21540;-69
2023/08/25 09:21:00;;;;;;;3.40;1.73;;;24.00;77.30;;;;;;2483418;55;21862;-71
2023/08/25 09:23:27;;;;;;;4.50;2.08;;;24.00;77.50;;;;;;2483158;55;21504;-71
2023/08/25 09:25:56;;;;;;;3.78;1.90;;;24.00;77.50;;;;;;2483749;55;20957;-71
2023/08/25 09:28:23;;;;;;;3.95;1.90;;;24.10;77.60;;;;;;2256356;56;21388;-70
2023/08/25 09:30:50;;;;;;;3.42;1.73;;;24.10;77.50;;;;;;2482973;55;21061;-70
2023/08/25 09:33:18;;;;;;;4.32;2.17;;;24.10;77.50;;;;;;2256530;56;20962;-72
2023/08/25 09:35:44;;;;;;;3.72;1.98;;;24.10;77.40;;;;;;2256045;56;21010;-71
2023/08/25 09:38:20;;;;;;;4.10;2.05;;;24.10;77.50;;;;;;2256512;56;21768;-72
2023/08/25 09:40:47;;;;;;;3.25;1.67;;;24.20;77.20;;;;;;2256109;56;20935;-71
2023/08/25 09:43:13;;;;;;;3.35;1.70;;;24.20;77.50;;;;;;2484397;55;21200;-69
2023/08/25 09:45:40;;;;;;;3.65;1.75;;;24.20;77.50;;;;;;2255877;56;20971;-69
2023/08/25 09:48:13;;;;;;;3.00;1.62;;;24.20;77.50;;;;;;2483688;55;20998;-71
2023/08/25 09:50:41;;;;;;;4.18;2.20;;;24.30;77.40;;;;;;2256169;56;20990;-71
2023/08/25 09:53:15;;;;;;;4.78;2.37;;;24.30;77.70;;;;;;2484728;55;20967;-69
2023/08/25 09:55:41;;;;;;;4.25;2.22;;;24.30;77.70;;;;;;2512274;55;21077;-70
2023/08/25 09:58:09;;;;;;;4.25;2.53;;;24.30;77.80;;;;;;2287257;55;22106;-71
2023/08/25 10:00:44;;;;;;;3.78;2.72;;;24.30;78.50;;;;;;2521240;55;21030;-71
2023/08/25 10:03:11;;;;;;;5.25;2.90;;;24.40;77.60;;;;;;2483949;55;21009;-70
2023/08/25 10:05:38;;;;;;;4.82;3.20;;;24.40;78.00;;;;;;2483633;55;21109;-68
2023/08/25 10:08:07;;;;;;;4.57;3.37;;;24.40;78.00;;;;;;2483753;55;21086;-71
2023/08/25 10:10:38;;;;;;;4.50;3.22;;;24.40;77.90;;;;;;2256475;56;20970;-70
2023/08/25 10:13:04;;;;;;;5.05;2.97;;;24.50;78.00;;;;;;2483175;55;21391;-69
2023/08/25 10:15:31;;;;;;;4.50;3.40;;;24.50;78.10;;;;;;2483650;55;20979;-70
2023/08/25 10:18:06;;;;;;;5.03;3.40;;;24.50;78.20;;;;;;2483768;55;21440;-71
2023/08/25 10:20:36;;;;;;;4.70;2.90;;;24.50;78.20;;;;;;2483879;55;21435;-71
2023/08/25 10:23:09;;;;;;;5.30;2.92;;;24.60;78.30;;;;;;2256174;56;21500;-70
2023/08/25 10:25:36;;;;;;;5.53;3.20;;;24.60;78.50;;;;;;2261551;56;20961;-71
2023/08/25 10:28:03;;;;;;;6.18;3.20;;;24.60;78.50;;;;;;2483123;55;21839;-71
2023/08/25 10:30:29;;;;;;;5.68;3.03;;;24.60;78.50;;;;;;2255562;56;21010;-71
2023/08/25 10:33:05;;;;;;;5.68;3.00;;;24.60;78.50;;;;;;2483058;55;20990;-71
2023/08/25 10:35:46;;;;;;;4.45;3.00;;;24.70;78.20;;;;;;2256090;56;20950;-71
2023/08/25 10:38:33;;;;;;;4.85;2.80;;;24.70;78.00;;;;;;2490542;55;21038;-70
2023/08/25 10:41:10;;;;;;;3.22;2.10;;;24.70;77.80;;;;;;2256159;56;20953;-71
2023/08/25 10:43:39;;;;;;;5.60;2.70;;;24.70;77.50;;;;;;2255890;56;20911;-70
2023/08/25 10:46:06;;;;;;;3.67;2.40;;;24.70;77.80;;;;;;2483478;55;20990;-70
2023/08/25 10:48:34;;;;;;;3.37;2.20;;;24.70;77.60;;;;;;2483670;55;20972;-73
2023/08/25 10:51:09;;;;;;;4.47;2.58;;;24.70;77.50;;;;;;2482789;55;20979;-71
2023/08/25 10:53:37;;;;;;;4.20;2.90;;;24.70;78.00;;;;;;2255872;56;21010;-71
2023/08/25 10:56:22;;;;;;;4.05;2.47;;;24.70;77.40;;;;;;2484183;55;20961;-71
2023/08/25 10:59:05;;;;;;;3.97;2.55;;;24.70;76.80;;;;;;2483430;55;20967;-71
2023/08/25 11:01:54;;;;;;;3.80;2.30;;;24.70;77.00;;;;;;2256675;56;20954;-70
2023/08/25 11:04:24;;;;;;;4.80;2.30;;;24.70;76.60;;;;;;2257027;56;20976;-71
2023/08/25 11:07:00;;;;;;;4.28;2.60;;;24.70;77.20;;;;;;2255695;56;21023;-70
2023/08/25 11:09:30;;;;;;;3.95;2.50;;;24.70;77.50;;;;;;2476234;55;20960;-69
2023/08/25 11:12:06;;;;;;;4.07;2.50;;;24.70;77.40;;;;;;2256277;56;21006;-69
2023/08/25 11:14:36;;;;;;;4.00;2.45;;;24.70;77.60;;;;;;2483676;55;21000;-70
2023/08/25 11:17:07;;;;;;;;;;;24.70;77.50;;;;;;2237405;56;21088;-70
2023/08/25 11:19:36;;;;;;;3.62;1.92;;;24.80;76.70;;;;;;2255157;56;20122;-73
2023/08/25 11:22:03;;;;;;;3.50;2.35;;;24.80;77.70;;;;;;2481642;55;21022;-70
2023/08/25 11:24:33;;;;;;;4.55;2.33;;;24.80;77.80;;;;;;2281947;56;20938;-73
2023/08/25 11:27:06;;;;;;;3.40;2.20;;;24.80;77.70;;;;;;2515035;55;20930;-70
2023/08/25 11:29:33;;;;;;;4.07;2.80;;;24.80;77.60;;;;;;2513607;55;20950;-72
2023/08/25 11:32:00;;;;;;;5.18;2.20;;;24.80;77.90;;;;;;2274240;56;21020;-72
2023/08/25 11:34:30;;;;;;;4.05;2.53;;;24.80;77.90;;;;;;2471456;55;21051;-72
2023/08/25 11:36:56;;;;;;;4.07;2.60;;;24.90;78.00;;;;;;2469296;55;20971;-70
2023/08/25 11:39:22;;;;;;;3.87;2.47;;;24.90;78.20;;;;;;2490030;55;20969;-71
2023/08/25 11:41:54;;;;;;;3.60;2.17;;;24.90;78.20;;;;;;2483808;55;21017;-71
2023/08/25 11:44:24;;;;;;;3.80;2.20;;;25.00;78.20;;;;;;2484542;55;20977;-70
2023/08/25 11:46:53;;;;;;;4.50;2.72;;;25.00;78.20;;;;;;2479790;55;20997;-70
2023/08/25 11:49:20;;;;;;;4.25;2.42;;;25.00;78.30;;;;;;2258756;56;20948;-69
2023/08/25 11:51:48;;;;;;;3.60;2.47;;;25.00;78.20;;;;;;2256022;56;20980;-69
2023/08/25 11:54:15;;;;;;;3.33;2.20;;;25.10;78.00;;;;;;2483299;55;20935;-70
2023/08/25 11:56:49;;;;;;;4.20;2.25;;;25.10;78.10;;;;;;2444242;55;20987;-72
2023/08/25 11:59:19;;;;;;;3.85;2.35;;;25.10;77.50;;;;;;2255084;56;20935;-72
2023/08/25 12:01:48;;;;;;;4.15;2.58;;;25.20;78.10;;;;;;2477437;55;21862;-72
2023/08/25 12:04:26;;;;;;;3.60;2.30;;;25.20;78.00;;;;;;2490828;55;20947;-71
2023/08/25 12:06:53;;;;;;;4.12;2.20;;;25.30;77.70;;;;;;2482748;55;20949;-72
2023/08/25 12:09:23;;;;;;;3.28;2.10;;;25.30;78.30;;;;;;2436853;56;20994;-72
2023/08/25 12:11:54;;;;;;;4.50;2.25;;;25.30;78.10;;;;;;2248532;55;21041;-72
2023/08/25 12:14:30;;;;;;;3.85;2.20;;;25.30;78.30;;;;;;2513752;55;21474;-72
2023/08/25 12:16:57;;;;;;;3.90;2.47;;;25.40;77.90;;;;;;2520529;55;20958;-73
2023/08/25 12:19:26;;;;;;;3.83;2.40;;;25.50;78.50;;;;;;2287598;55;20938;-68
2023/08/25 12:21:57;;;;;;;3.22;2.03;;;25.50;78.90;;;;;;2286614;55;20974;-69
2023/08/25 12:24:25;;;;;;;3.83;2.17;;;25.60;78.30;;;;;;2288146;56;20977;-70
2023/08/25 12:26:51;;;;;;;3.28;2.10;;;25.60;78.60;;;;;;2518154;55;21631;-69
2023/08/25 12:29:19;;;;;;;3.60;2.20;;;25.70;78.80;;;;;;2518367;54;21701;-72
2023/08/25 12:31:48;;;;;;;3.15;2.12;;;25.70;78.60;;;;;;2520348;55;21528;-71
2023/08/25 12:34:14;;;;;;;4.37;2.60;;;25.80;78.70;;;;;;2520980;55;21016;-72
2023/08/25 12:36:40;;;;;;;3.50;2.17;;;25.80;78.70;;;;;;2520686;55;21955;-72
2023/08/25 12:39:07;;;;;;;5.30;2.58;;;25.90;78.80;;;;;;2287170;55;20914;-71
2023/08/25 12:41:33;;;;;;;6.43;2.67;;;26.00;79.00;;;;;;2520604;55;21007;-72
2023/08/25 12:44:00;;;;;;;4.78;2.67;;;26.00;79.00;;;;;;2520522;55;21820;-73
2023/08/25 12:46:26;;;;;;;4.45;2.70;;;26.10;79.00;;;;;;2521516;55;20978;-72
2023/08/25 12:48:52;;;;;;;5.70;2.20;;;26.10;78.90;;;;;;2516263;54;20996;-71
2023/08/25 12:51:21;;;;;;;4.35;2.50;;;26.20;79.10;;;;;;2521573;55;20935;-72
2023/08/25 12:53:48;;;;;;;3.80;2.33;;;26.30;79.20;;;;;;2520081;55;20997;-69
2023/08/25 12:56:14;;;;;;;3.78;2.33;;;26.40;79.00;;;;;;2287328;55;21871;-69